Time;durP1;ratioP1;P1;durP2;ratioP2;P2;SDS_P1;SDS_P2;PMS_P1;PMS_P2;Temp;Humidity;BMP_temperature;BMP_pressure;BME280_temperature;BME280_humidity;BME280_pressure;Samples;Min_cycle;Max_cycle;Signal;HPM_P1;HPM_P2
2023/03/23 00:02:26;;;;;;;2.78;1.02;;;12.50;1.00;;;;;;6211350;23;20612;-78
2023/03/23 00:04:53;;;;;;;2.00;1.15;;;12.50;1.00;;;;;;6237759;23;20216;-77
2023/03/23 00:07:22;;;;;;;1.25;0.80;;;12.80;1.00;;;;;;6238666;23;20197;-77
2023/03/23 00:09:53;;;;;;;1.70;1.10;;;12.50;1.00;;;;;;6238500;23;20154;-77
2023/03/23 00:12:33;;;;;;;1.63;1.05;;;12.50;1.00;;;;;;6211131;23;20569;-77
2023/03/23 00:15:04;;;;;;;1.90;0.90;;;12.50;1.00;;;;;;6211203;23;20235;-77
2023/03/23 00:17:32;;;;;;;2.08;0.80;;;12.60;1.00;;;;;;6238563;23;20196;-78
2023/03/23 00:20:00;;;;;;;1.58;0.90;;;12.50;1.00;;;;;;6238196;23;20150;-77
2023/03/23 00:22:27;;;;;;;1.63;1.10;;;12.50;1.00;;;;;;6238923;23;20240;-77
2023/03/23 00:24:53;;;;;;;1.50;1.02;;;12.50;1.00;;;;;;6239332;23;20177;-77
2023/03/23 00:27:21;;;;;;;2.85;0.98;;;12.40;1.00;;;;;;6238036;23;20818;-77
2023/03/23 00:29:53;;;;;;;1.45;1.00;;;12.40;1.00;;;;;;6239437;23;20162;-77
2023/03/23 00:32:28;;;;;;;1.50;1.10;;;12.40;1.00;;;;;;6239305;23;20165;-77
2023/03/23 00:34:54;;;;;;;2.03;1.00;;;12.40;1.00;;;;;;6211918;23;20644;-78
2023/03/23 00:37:21;;;;;;;1.67;0.88;;;12.40;1.00;;;;;;6239258;23;20594;-77
2023/03/23 00:39:46;;;;;;;1.63;1.02;;;12.40;1.00;;;;;;6238826;23;20157;-77
2023/03/23 00:42:14;;;;;;;2.08;1.00;;;12.40;1.00;;;;;;6238146;23;20492;-77
2023/03/23 00:44:40;;;;;;;0.90;0.70;;;12.50;1.00;;;;;;6238555;23;20209;-78
2023/03/23 00:47:08;;;;;;;1.75;1.27;;;12.50;1.00;;;;;;6238504;23;20158;-77
2023/03/23 00:49:34;;;;;;;2.78;1.23;;;12.40;1.00;;;;;;6212851;23;20519;-77
2023/03/23 00:52:01;;;;;;;1.50;1.10;;;12.40;1.00;;;;;;6239341;23;20173;-78
2023/03/23 00:54:26;;;;;;;1.63;1.00;;;12.40;1.00;;;;;;6210855;23;20264;-78
2023/03/23 00:56:53;;;;;;;3.42;1.08;;;12.40;1.00;;;;;;6238694;23;20186;-78
2023/03/23 00:59:19;;;;;;;3.08;1.02;;;12.40;1.00;;;;;;6210730;23;20239;-78
2023/03/23 01:01:45;;;;;;;4.20;1.42;;;12.40;1.00;;;;;;6238211;23;20164;-78
2023/03/23 01:04:12;;;;;;;2.28;1.30;;;12.30;1.00;;;;;;6210664;23;20173;-78
2023/03/23 01:06:39;;;;;;;2.20;1.13;;;12.10;1.00;;;;;;6238479;23;20159;-78
2023/03/23 01:09:23;;;;;;;2.15;1.00;;;12.00;1.00;;;;;;6238903;23;20154;-77
2023/03/23 01:11:50;;;;;;;3.53;1.40;;;11.90;1.00;;;;;;6238988;23;20169;-78
2023/03/23 01:14:17;;;;;;;2.85;1.17;;;11.80;1.00;;;;;;6238337;23;20169;-78
2023/03/23 01:16:43;;;;;;;2.20;1.33;;;11.80;1.00;;;;;;6239066;23;20601;-78
2023/03/23 01:19:09;;;;;;;1.30;1.17;;;11.70;1.00;;;;;;6239122;23;20150;-78
2023/03/23 01:21:36;;;;;;;2.15;1.27;;;11.70;1.00;;;;;;6238530;23;20602;-78
2023/03/23 01:24:02;;;;;;;1.10;1.00;;;11.70;1.00;;;;;;6238838;23;20668;-78
2023/03/23 01:26:28;;;;;;;4.60;1.40;;;11.70;1.00;;;;;;6238755;23;20153;-77
2023/03/23 01:28:55;;;;;;;2.95;1.20;;;11.70;1.00;;;;;;6238078;23;20952;-78
2023/03/23 01:31:23;;;;;;;1.73;1.20;;;11.70;1.00;;;;;;6238761;23;20612;-78
2023/03/23 01:33:53;;;;;;;2.40;1.20;;;11.60;1.00;;;;;;6236862;23;20176;-78
2023/03/23 01:36:28;;;;;;;2.45;1.27;;;11.60;1.00;;;;;;6238027;23;20582;-78
2023/03/23 01:38:54;;;;;;;1.70;1.00;;;11.60;1.00;;;;;;6238754;23;20289;-78
2023/03/23 01:41:21;;;;;;;3.50;1.40;;;11.60;1.00;;;;;;6238456;23;20154;-78
2023/03/23 01:44:07;;;;;;;1.58;1.25;;;11.50;1.00;;;;;;6211308;23;20182;-78
2023/03/23 01:46:36;;;;;;;2.65;1.70;;;11.60;1.00;;;;;;6238717;23;20154;-78
2023/03/23 01:49:21;;;;;;;2.33;1.42;;;11.40;1.00;;;;;;6238687;23;20153;-77
2023/03/23 01:51:52;;;;;;;2.80;1.40;;;11.40;1.00;;;;;;6212728;23;20232;-77
2023/03/23 01:54:20;;;;;;;1.98;1.13;;;11.50;1.00;;;;;;6212862;23;20201;-77
2023/03/23 01:56:59;;;;;;;2.05;1.10;;;11.50;1.00;;;;;;6213656;23;20146;-77
2023/03/23 01:59:26;;;;;;;2.40;1.20;;;11.50;1.00;;;;;;6214877;23;20163;-78
2023/03/23 02:01:53;;;;;;;1.88;1.17;;;11.50;1.00;;;;;;6214470;23;20284;-77
2023/03/23 02:04:21;;;;;;;2.42;1.38;;;11.50;1.00;;;;;;6241664;23;20826;-77
2023/03/23 02:06:47;;;;;;;1.38;1.17;;;11.40;1.00;;;;;;6214834;23;20164;-77
2023/03/23 02:09:13;;;;;;;1.63;1.00;;;11.40;1.00;;;;;;6241763;23;20157;-77
2023/03/23 02:11:40;;;;;;;2.70;1.35;;;11.50;1.00;;;;;;6214651;23;20199;-76
2023/03/23 02:14:05;;;;;;;3.00;1.63;;;11.50;1.00;;;;;;6242325;23;20176;-78
2023/03/23 02:16:46;;;;;;;1.52;0.98;;;11.40;1.00;;;;;;6241708;23;20150;-77
2023/03/23 02:19:23;;;;;;;2.75;1.30;;;11.50;1.00;;;;;;6241946;23;20156;-77
2023/03/23 02:21:55;;;;;;;2.55;1.05;;;11.50;1.00;;;;;;6241869;23;20150;-76
2023/03/23 02:24:26;;;;;;;1.90;1.20;;;11.40;1.00;;;;;;6242635;23;20178;-77
2023/03/23 02:27:03;;;;;;;2.33;1.58;;;11.40;1.00;;;;;;6242033;23;20146;-77
2023/03/23 02:29:52;;;;;;;1.98;1.45;;;11.40;1.00;;;;;;6215564;23;20153;-77
2023/03/23 02:32:40;;;;;;;3.08;1.30;;;11.40;1.00;;;;;;6242198;23;20530;-76
2023/03/23 02:35:14;;;;;;;3.15;1.42;;;11.40;1.00;;;;;;6215057;23;20256;-77
2023/03/23 02:37:58;;;;;;;3.08;1.42;;;11.40;1.00;;;;;;6214848;23;20150;-77
2023/03/23 02:40:30;;;;;;;1.63;1.20;;;11.40;1.00;;;;;;6241277;23;20221;-78
2023/03/23 02:42:58;;;;;;;2.72;1.33;;;11.40;1.00;;;;;;6242127;23;20196;-77
2023/03/23 02:45:25;;;;;;;2.03;1.30;;;11.40;1.00;;;;;;6241967;23;20268;-77
2023/03/23 02:47:53;;;;;;;1.90;1.30;;;11.40;1.00;;;;;;6214699;23;20157;-77
2023/03/23 02:50:23;;;;;;;1.95;1.33;;;11.40;1.00;;;;;;6214730;23;20618;-78
2023/03/23 02:52:52;;;;;;;1.20;1.10;;;11.10;1.00;;;;;;6241680;23;20149;-77
2023/03/23 02:55:20;;;;;;;2.25;1.45;;;11.40;1.00;;;;;;6242229;23;20729;-77
2023/03/23 02:57:47;;;;;;;2.30;1.40;;;11.40;1.00;;;;;;6242306;23;20585;-77
2023/03/23 03:00:16;;;;;;;1.70;1.42;;;11.50;1.00;;;;;;6242039;23;20150;-77
2023/03/23 03:02:47;;;;;;;1.17;0.98;;;11.50;1.00;;;;;;6214926;23;20162;-77
2023/03/23 03:05:26;;;;;;;1.67;1.20;;;11.50;1.00;;;;;;6214853;23;20188;-77
2023/03/23 03:08:18;;;;;;;1.20;1.08;;;11.50;1.00;;;;;;6242113;23;20141;-77
2023/03/23 03:11:03;;;;;;;1.48;1.05;;;11.50;1.00;;;;;;6216700;23;20198;-77
2023/03/23 03:13:50;;;;;;;2.45;1.35;;;11.50;1.00;;;;;;6243903;23;20138;-76
2023/03/23 03:16:28;;;;;;;3.15;1.63;;;11.50;1.00;;;;;;6243840;23;20142;-76
2023/03/23 03:19:22;;;;;;;3.08;1.27;;;11.50;1.00;;;;;;6244034;23;20603;-76
2023/03/23 03:21:50;;;;;;;1.98;1.50;;;11.50;1.00;;;;;;6243631;23;20158;-77
2023/03/23 03:24:19;;;;;;;3.00;1.52;;;11.50;1.00;;;;;;6242983;23;20181;-77
2023/03/23 03:26:47;;;;;;;1.52;1.20;;;11.50;1.00;;;;;;6242621;23;20149;-76
2023/03/23 03:29:17;;;;;;;2.90;1.42;;;11.50;1.00;;;;;;6216557;23;20161;-76
2023/03/23 03:31:47;;;;;;;3.08;1.40;;;11.50;1.00;;;;;;6216311;23;20645;-76
2023/03/23 03:34:17;;;;;;;3.95;1.40;;;11.50;1.00;;;;;;6243699;23;20705;-77
2023/03/23 03:36:46;;;;;;;2.65;1.40;;;11.50;1.00;;;;;;6216207;23;20185;-76
2023/03/23 03:39:15;;;;;;;4.13;1.58;;;11.40;1.00;;;;;;6242567;23;20154;-77
2023/03/23 03:41:42;;;;;;;1.80;1.40;;;11.40;1.00;;;;;;6216149;23;20713;-77
2023/03/23 03:44:08;;;;;;;2.25;1.55;;;11.40;1.00;;;;;;6241878;23;20210;-76
2023/03/23 03:46:35;;;;;;;3.65;1.65;;;11.40;1.00;;;;;;6215437;23;20212;-77
2023/03/23 03:49:02;;;;;;;3.30;1.80;;;11.40;1.00;;;;;;6241788;23;20161;-77
2023/03/23 03:51:30;;;;;;;1.58;1.42;;;11.30;1.00;;;;;;6213613;23;20183;-76
2023/03/23 03:53:56;;;;;;;4.22;1.60;;;11.30;1.00;;;;;;6212889;23;20212;-76
2023/03/23 03:56:22;;;;;;;2.45;1.48;;;11.20;1.00;;;;;;6240308;23;20476;-76
2023/03/23 03:58:49;;;;;;;1.70;1.50;;;11.20;1.00;;;;;;6239699;23;20582;-76
2023/03/23 04:01:17;;;;;;;2.85;1.40;;;11.20;1.00;;;;;;6212007;23;20211;-76
2023/03/23 04:03:43;;;;;;;2.03;1.77;;;11.10;7.20;;;;;;6241221;23;20180;-76
2023/03/23 04:06:12;;;;;;;3.17;1.70;;;11.10;1.80;;;;;;6242671;23;20153;-78
2023/03/23 04:08:38;;;;;;;1.98;1.38;;;11.10;8.70;;;;;;6241728;23;20885;-77
2023/03/23 04:11:05;;;;;;;1.73;1.50;;;11.10;5.80;;;;;;6242237;23;20177;-76
2023/03/23 04:13:31;;;;;;;3.03;1.52;;;11.10;10.20;;;;;;6241384;23;20282;-77
2023/03/23 04:15:56;;;;;;;2.40;1.60;;;11.10;6.00;;;;;;6242126;23;20149;-77
2023/03/23 04:18:23;;;;;;;4.03;1.50;;;10.80;4.60;;;;;;6242749;23;20158;-77
2023/03/23 04:20:49;;;;;;;2.88;1.48;;;11.10;11.80;;;;;;6241927;23;20153;-77
2023/03/23 04:23:22;;;;;;;1.77;1.45;;;11.10;11.70;;;;;;6215033;23;20180;-77
2023/03/23 04:25:49;;;;;;;4.07;1.90;;;11.00;22.30;;;;;;6241480;23;20586;-77
2023/03/23 04:28:18;;;;;;;3.25;1.50;;;11.00;39.20;;;;;;6241938;23;20154;-77
2023/03/23 04:30:44;;;;;;;1.60;1.50;;;11.00;67.90;;;;;;6241396;23;20181;-77
2023/03/23 04:33:14;;;;;;;1.83;1.43;;;11.00;89.70;;;;;;6214501;23;20153;-78
2023/03/23 04:35:41;;;;;;;3.25;1.50;;;10.90;99.90;;;;;;6241716;23;20173;-77
2023/03/23 04:38:08;;;;;;;3.00;1.50;;;10.80;99.90;;;;;;6241342;23;20950;-77
2023/03/23 04:40:39;;;;;;;3.20;1.40;;;10.80;99.90;;;;;;6241132;23;20160;-77
2023/03/23 04:43:05;;;;;;;3.25;1.50;;;10.80;99.90;;;;;;6241846;23;20206;-77
2023/03/23 04:45:32;;;;;;;1.98;1.60;;;10.80;99.90;;;;;;6240630;23;20173;-77
2023/03/23 04:47:58;;;;;;;3.13;1.80;;;10.70;99.90;;;;;;6240829;23;20157;-77
2023/03/23 04:50:30;;;;;;;4.50;1.95;;;10.70;99.90;;;;;;6241006;23;20219;-77
2023/03/23 04:52:57;;;;;;;2.03;1.50;;;10.70;99.90;;;;;;6213764;23;20150;-77
2023/03/23 04:55:25;;;;;;;3.15;1.73;;;10.70;99.90;;;;;;6240375;23;20180;-77
2023/03/23 04:57:50;;;;;;;3.03;1.80;;;10.70;99.90;;;;;;6241058;23;20149;-78
2023/03/23 05:00:17;;;;;;;2.75;1.67;;;10.60;99.90;;;;;;6240031;23;20169;-77
2023/03/23 05:02:46;;;;;;;3.77;1.70;;;10.60;99.90;;;;;;6239043;23;20153;-77
2023/03/23 05:05:13;;;;;;;4.28;1.90;;;10.60;99.90;;;;;;6213580;23;20231;-77
2023/03/23 05:07:40;;;;;;;2.83;1.70;;;10.60;99.90;;;;;;6241772;23;20212;-77
2023/03/23 05:10:08;;;;;;;2.70;1.87;;;10.60;99.90;;;;;;6242279;23;20150;-76
2023/03/23 05:12:34;;;;;;;3.60;1.80;;;10.60;99.90;;;;;;6214060;23;20182;-77
2023/03/23 05:15:00;;;;;;;3.67;2.27;;;10.50;99.90;;;;;;6242345;23;20869;-77
2023/03/23 05:17:26;;;;;;;2.73;1.83;;;10.50;99.90;;;;;;6242095;23;20150;-77
2023/03/23 05:19:52;;;;;;;2.07;1.70;;;10.60;99.90;;;;;;6214713;23;20235;-77
2023/03/23 05:22:17;;;;;;;2.80;1.60;;;10.50;99.90;;;;;;6241759;23;20549;-78
2023/03/23 05:24:43;;;;;;;2.58;1.60;;;10.50;99.90;;;;;;6241171;23;20212;-77
2023/03/23 05:27:10;;;;;;;2.30;1.40;;;10.50;99.90;;;;;;6214107;23;20161;-77
2023/03/23 05:29:36;;;;;;;1.60;1.50;;;10.60;99.90;;;;;;6241450;23;20157;-77
2023/03/23 05:32:04;;;;;;;2.88;2.10;;;10.50;99.90;;;;;;6241370;23;20735;-76
2023/03/23 05:34:32;;;;;;;2.42;1.90;;;10.50;99.90;;;;;;6213793;23;20177;-77
2023/03/23 05:36:58;;;;;;;1.95;1.75;;;10.50;99.90;;;;;;6241549;23;20204;-77
2023/03/23 05:39:24;;;;;;;2.63;1.88;;;10.50;99.90;;;;;;6241642;23;20180;-77
2023/03/23 05:41:50;;;;;;;2.03;1.70;;;10.50;99.90;;;;;;6241481;23;20149;-77
2023/03/23 05:44:16;;;;;;;2.55;1.85;;;10.50;99.90;;;;;;6240919;23;20178;-78
2023/03/23 05:46:41;;;;;;;1.93;1.50;;;10.50;99.90;;;;;;6214963;23;20508;-77
2023/03/23 05:49:07;;;;;;;1.98;1.70;;;10.60;99.90;;;;;;6214903;23;20919;-77
2023/03/23 05:51:33;;;;;;;2.40;1.50;;;10.60;99.90;;;;;;6241744;23;20182;-77
2023/03/23 05:53:58;;;;;;;2.23;1.63;;;10.60;99.90;;;;;;6213708;23;20209;-77
2023/03/23 05:56:24;;;;;;;2.30;1.30;;;10.70;99.90;;;;;;6241861;23;20157;-77
2023/03/23 05:58:50;;;;;;;1.25;1.10;;;10.70;99.90;;;;;;6241102;23;20149;-77
2023/03/23 06:01:16;;;;;;;3.03;1.20;;;10.70;99.30;;;;;;6241568;23;20158;-77
2023/03/23 06:03:41;;;;;;;1.97;1.17;;;10.70;87.40;;;;;;6241964;23;20207;-77
2023/03/23 06:06:11;;;;;;;2.08;1.23;;;10.70;87.40;;;;;;6241569;23;20153;-77
2023/03/23 06:08:37;;;;;;;1.90;1.50;;;10.70;79.50;;;;;;6242132;23;20219;-77
2023/03/23 06:11:03;;;;;;;2.33;1.08;;;10.70;76.70;;;;;;6215120;23;20189;-77
2023/03/23 06:13:28;;;;;;;1.10;1.00;;;10.70;65.90;;;;;;6214609;23;20157;-77
2023/03/23 06:15:57;;;;;;;1.95;1.08;;;10.70;48.40;;;;;;6215850;23;20169;-77
2023/03/23 06:18:24;;;;;;;1.85;1.08;;;10.80;38.00;;;;;;6241937;23;20153;-77
2023/03/23 06:20:50;;;;;;;1.60;1.10;;;10.80;33.30;;;;;;6241636;23;20168;-77
2023/03/23 06:23:16;;;;;;;1.48;0.90;;;10.90;28.70;;;;;;6214683;23;20178;-78
2023/03/23 06:25:42;;;;;;;2.08;1.10;;;10.80;29.60;;;;;;6241642;23;20200;-77
2023/03/23 06:28:09;;;;;;;1.60;0.90;;;10.90;22.70;;;;;;6241043;23;20158;-77
2023/03/23 06:30:35;;;;;;;1.63;1.00;;;11.00;23.60;;;;;;6213999;23;20241;-77
2023/03/23 06:33:00;;;;;;;2.13;1.00;;;11.00;20.80;;;;;;6213858;23;20193;-77
2023/03/23 06:35:26;;;;;;;1.58;1.15;;;11.00;20.30;;;;;;6214408;23;20178;-77
2023/03/23 06:37:53;;;;;;;1.83;1.10;;;11.10;11.40;;;;;;6241359;23;20212;-77
2023/03/23 06:40:19;;;;;;;1.38;0.88;;;11.20;14.80;;;;;;6241053;23;20177;-77
2023/03/23 06:42:44;;;;;;;2.25;1.05;;;11.20;11.60;;;;;;6214228;23;20157;-77
2023/03/23 06:45:10;;;;;;;1.17;0.85;;;11.20;11.30;;;;;;6215354;23;20516;-77
2023/03/23 06:47:36;;;;;;;0.95;0.70;;;11.30;9.70;;;;;;6216368;23;20162;-77
2023/03/23 06:50:02;;;;;;;1.60;0.90;;;11.20;9.60;;;;;;6215795;23;20154;-78
2023/03/23 06:52:27;;;;;;;1.73;0.90;;;11.20;12.10;;;;;;6242889;23;20262;-77
2023/03/23 06:54:53;;;;;;;0.85;0.70;;;11.30;16.20;;;;;;6242565;23;20177;-77
2023/03/23 06:57:20;;;;;;;1.80;0.90;;;11.30;17.00;;;;;;6243434;23;20153;-77
2023/03/23 06:59:45;;;;;;;0.93;0.80;;;11.20;15.00;;;;;;6242437;23;20228;-76
2023/03/23 07:02:13;;;;;;;0.70;0.60;;;11.20;14.00;;;;;;6241875;23;20189;-77
2023/03/23 07:04:40;;;;;;;1.10;1.00;;;11.20;17.40;;;;;;6213937;23;20185;-77
2023/03/23 07:07:08;;;;;;;1.13;0.77;;;11.20;17.20;;;;;;6239917;23;20149;-78
2023/03/23 07:09:34;;;;;;;1.20;0.85;;;11.20;16.00;;;;;;6241560;23;20177;-77
2023/03/23 07:12:00;;;;;;;2.60;1.00;;;11.20;18.20;;;;;;6214402;23;20186;-76
2023/03/23 07:14:26;;;;;;;1.67;1.15;;;11.30;18.60;;;;;;6241079;23;20680;-77
2023/03/23 07:16:53;;;;;;;0.82;0.80;;;11.30;14.10;;;;;;6242940;23;20196;-77
2023/03/23 07:19:18;;;;;;;1.60;0.95;;;11.30;20.80;;;;;;6242199;23;20150;-77
2023/03/23 07:21:44;;;;;;;2.72;0.80;;;11.40;11.90;;;;;;6239408;23;20160;-76
2023/03/23 07:24:13;;;;;;;1.02;0.95;;;11.40;7.60;;;;;;6211705;23;20189;-77
2023/03/23 07:26:41;;;;;;;1.58;0.80;;;11.50;1.50;;;;;;6240137;23;20153;-77
2023/03/23 07:29:07;;;;;;;0.80;0.80;;;11.70;1.00;;;;;;6216969;23;20164;-77
2023/03/23 07:31:32;;;;;;;1.25;1.00;;;11.80;1.00;;;;;;6244351;23;20182;-78
2023/03/23 07:33:58;;;;;;;1.45;1.15;;;11.90;1.00;;;;;;6243830;23;20217;-77
2023/03/23 07:36:23;;;;;;;1.20;1.10;;;11.90;1.00;;;;;;6244086;23;20224;-78
2023/03/23 07:38:49;;;;;;;0.90;0.88;;;12.00;1.00;;;;;;6244271;23;20154;-78
2023/03/23 07:41:17;;;;;;;1.25;0.80;;;12.10;1.00;;;;;;6243914;23;20153;-78
2023/03/23 07:43:42;;;;;;;2.15;0.90;;;12.10;1.00;;;;;;6244936;23;20142;-77
2023/03/23 07:46:08;;;;;;;1.00;0.70;;;12.00;1.00;;;;;;6242180;23;20168;-79
2023/03/23 07:48:33;;;;;;;1.55;0.80;;;12.00;1.00;;;;;;6213773;23;20196;-79
2023/03/23 07:51:00;;;;;;;1.90;0.73;;;12.00;1.00;;;;;;6239708;23;20173;-78
2023/03/23 07:53:25;;;;;;;1.15;0.95;;;12.00;1.00;;;;;;6210760;23;20162;-78
2023/03/23 07:55:51;;;;;;;2.17;1.05;;;11.90;1.00;;;;;;6238524;23;20183;-78
2023/03/23 07:58:19;;;;;;;1.65;0.95;;;12.00;1.00;;;;;;6241713;23;20209;-78
2023/03/23 08:00:48;;;;;;;1.38;1.13;;;12.00;1.00;;;;;;6243705;23;20158;-78
2023/03/23 08:03:15;;;;;;;1.73;1.15;;;12.10;1.00;;;;;;6245638;23;20153;-77
2023/03/23 08:05:41;;;;;;;1.17;0.90;;;12.20;1.00;;;;;;6246677;23;20173;-76
2023/03/23 08:08:09;;;;;;;1.30;1.00;;;12.30;1.00;;;;;;6246476;23;20154;-78
2023/03/23 08:10:35;;;;;;;2.67;1.17;;;12.40;1.00;;;;;;6219677;23;20157;-78
2023/03/23 08:13:02;;;;;;;1.95;1.10;;;12.50;1.00;;;;;;6244604;23;20150;-79
2023/03/23 08:15:28;;;;;;;1.25;1.15;;;12.60;1.00;;;;;;6218271;23;20610;-78
2023/03/23 08:17:54;;;;;;;1.48;1.00;;;12.70;1.00;;;;;;6220450;23;20146;-78
2023/03/23 08:20:20;;;;;;;1.00;0.90;;;12.80;1.00;;;;;;6246012;23;20156;-77
2023/03/23 08:22:52;;;;;;;1.83;1.02;;;13.00;1.00;;;;;;6246242;23;20165;-78
2023/03/23 08:25:18;;;;;;;1.63;1.05;;;13.00;1.00;;;;;;6247001;23;20170;-77
2023/03/23 08:27:44;;;;;;;1.50;1.00;;;13.00;1.00;;;;;;6247467;23;20177;-78
2023/03/23 08:30:16;;;;;;;0.80;0.80;;;13.10;1.00;;;;;;6220451;23;20165;-78
2023/03/23 08:32:42;;;;;;;1.98;1.23;;;13.20;1.00;;;;;;6244942;23;20180;-78
2023/03/23 08:35:10;;;;;;;1.20;1.00;;;13.30;1.00;;;;;;6244624;23;20173;-78
2023/03/23 08:37:37;;;;;;;1.20;1.10;;;13.40;1.00;;;;;;6246100;23;20138;-77
2023/03/23 08:40:11;;;;;;;1.98;1.15;;;13.40;1.00;;;;;;6245486;23;20162;-78
2023/03/23 08:42:38;;;;;;;2.30;1.17;;;13.40;1.00;;;;;;6217869;23;20176;-77
2023/03/23 08:45:08;;;;;;;1.98;1.35;;;13.50;1.00;;;;;;6218314;23;20177;-78
2023/03/23 08:47:36;;;;;;;2.08;1.17;;;13.50;1.00;;;;;;6217583;23;20164;-78
2023/03/23 08:50:03;;;;;;;1.25;1.15;;;13.60;1.00;;;;;;6246528;23;20538;-78
2023/03/23 08:52:29;;;;;;;2.05;1.00;;;13.60;1.00;;;;;;6244815;23;20181;-78
2023/03/23 08:54:56;;;;;;;1.08;0.98;;;13.50;1.00;;;;;;6212349;23;20229;-78
2023/03/23 08:57:24;;;;;;;2.75;1.10;;;13.40;1.00;;;;;;6213696;23;20181;-78
2023/03/23 08:59:49;;;;;;;1.45;1.25;;;13.20;1.00;;;;;;6242642;23;20150;-78
2023/03/23 09:02:16;;;;;;;1.52;1.17;;;13.10;1.00;;;;;;6245410;23;20483;-78
2023/03/23 09:04:42;;;;;;;1.65;1.20;;;13.10;1.00;;;;;;6219019;23;20181;-78
2023/03/23 09:07:10;;;;;;;1.27;1.13;;;13.10;1.00;;;;;;6244455;23;20154;-78
2023/03/23 09:09:37;;;;;;;2.22;1.30;;;13.20;1.00;;;;;;6245119;23;20157;-78
2023/03/23 09:12:03;;;;;;;2.65;1.40;;;13.20;1.00;;;;;;6244518;23;20572;-78
2023/03/23 09:14:28;;;;;;;2.40;1.20;;;13.20;1.00;;;;;;6235226;23;20174;-78
2023/03/23 09:16:54;;;;;;;2.47;1.23;;;13.30;1.00;;;;;;6234965;23;20227;-78
2023/03/23 09:19:20;;;;;;;1.77;1.48;;;13.30;1.00;;;;;;6207725;23;20153;-78
2023/03/23 09:21:46;;;;;;;3.63;1.48;;;13.40;1.00;;;;;;6208951;23;20157;-81
2023/03/23 09:24:11;;;;;;;2.22;1.35;;;13.40;1.00;;;;;;6237174;23;20193;-79
2023/03/23 09:26:37;;;;;;;2.35;1.33;;;13.50;1.00;;;;;;6243426;23;21011;-82
2023/03/23 09:29:03;;;;;;;2.58;1.17;;;13.50;1.00;;;;;;6216986;23;20252;-80
2023/03/23 09:31:31;;;;;;;2.05;1.30;;;13.50;1.00;;;;;;6215328;23;20675;-77
2023/03/23 09:33:58;;;;;;;2.30;1.17;;;13.50;1.00;;;;;;6207510;23;20182;-80
2023/03/23 09:36:25;;;;;;;2.88;1.38;;;13.50;1.00;;;;;;6238864;23;20150;-80
2023/03/23 09:38:52;;;;;;;2.58;1.50;;;13.50;1.00;;;;;;6211971;23;20158;-80
2023/03/23 09:41:38;;;;;;;2.42;1.52;;;13.50;1.00;;;;;;6239286;23;20208;-80
2023/03/23 09:44:16;;;;;;;2.97;1.30;;;13.60;1.00;;;;;;6211792;23;20181;-80
2023/03/23 09:47:38;;;;;;;1.83;1.30;;;13.60;1.00;;;;;;6212915;23;20203;-80
2023/03/23 09:50:31;;;;;;;3.53;1.50;;;13.60;1.00;;;;;;6147129;23;20573;-80
2023/03/23 09:53:01;;;;;;;1.83;1.45;;;13.60;1.00;;;;;;6211585;23;20157;-79
2023/03/23 09:55:28;;;;;;;2.58;1.17;;;13.60;1.00;;;;;;6239319;23;20196;-78
2023/03/23 09:58:00;;;;;;;3.33;1.30;;;13.60;1.00;;;;;;6238370;23;20256;-79
2023/03/23 10:00:34;;;;;;;3.22;1.42;;;13.70;1.00;;;;;;6238731;23;20156;-79
2023/03/23 10:03:07;;;;;;;3.50;1.55;;;13.70;1.00;;;;;;6211826;23;20493;-79
2023/03/23 10:05:41;;;;;;;2.45;1.50;;;13.80;1.00;;;;;;6211435;23;20185;-79
2023/03/23 10:08:13;;;;;;;1.85;1.40;;;13.80;1.00;;;;;;6238531;23;20148;-78
2023/03/23 10:11:00;;;;;;;2.33;1.50;;;13.80;1.00;;;;;;6239332;23;20153;-80
2023/03/23 10:13:29;;;;;;;4.10;1.30;;;13.90;1.00;;;;;;6239237;23;20218;-80
2023/03/23 10:15:56;;;;;;;2.10;1.40;;;14.00;1.00;;;;;;6212613;23;20184;-79
2023/03/23 10:18:34;;;;;;;3.50;1.83;;;14.00;1.00;;;;;;6246133;23;20149;-77
2023/03/23 10:21:03;;;;;;;2.35;1.42;;;14.10;1.00;;;;;;6240476;23;20375;-78
2023/03/23 10:23:43;;;;;;;4.10;1.23;;;14.20;1.00;;;;;;6240060;23;20176;-80
2023/03/23 10:26:34;;;;;;;3.10;1.50;;;14.20;1.00;;;;;;6239843;23;20138;-83
2023/03/23 10:29:16;;;;;;;2.83;1.65;;;14.30;1.00;;;;;;6239545;23;20165;-81
2023/03/23 10:32:10;;;;;;;2.67;1.30;;;14.40;1.00;;;;;;6239284;23;20173;-82
2023/03/23 10:34:41;;;;;;;2.38;1.40;;;14.40;1.00;;;;;;6212168;23;20188;-82
2023/03/23 10:37:24;;;;;;;3.60;1.48;;;14.50;1.00;;;;;;6214090;23;20146;-83
2023/03/23 10:39:51;;;;;;;2.47;1.48;;;14.50;1.00;;;;;;6242198;23;20188;-83
2023/03/23 10:42:34;;;;;;;2.25;1.27;;;14.50;1.00;;;;;;6241294;23;20154;-82
2023/03/23 10:45:11;;;;;;;3.85;1.63;;;14.70;1.00;;;;;;6241641;23;20173;-82
2023/03/23 10:47:39;;;;;;;3.58;1.73;;;14.30;1.00;;;;;;6241804;23;20145;-82
2023/03/23 10:50:10;;;;;;;3.60;1.40;;;13.90;1.00;;;;;;6241375;23;20185;-82
2023/03/23 10:52:41;;;;;;;2.47;1.25;;;13.60;1.00;;;;;;6214251;23;20207;-82
2023/03/23 10:55:14;;;;;;;1.92;1.35;;;13.60;1.00;;;;;;6241799;23;20224;-82
2023/03/23 10:57:44;;;;;;;5.95;1.67;;;13.80;1.00;;;;;;6241226;23;20146;-82
2023/03/23 11:00:22;;;;;;;2.50;1.50;;;13.90;1.00;;;;;;6215349;23;20621;-81
2023/03/23 11:03:02;;;;;;;2.47;1.50;;;14.00;1.00;;;;;;6215491;23;20177;-81
2023/03/23 11:05:32;;;;;;;3.53;1.50;;;14.10;1.00;;;;;;6215211;23;20181;-81
2023/03/23 11:08:01;;;;;;;4.03;1.30;;;14.10;1.00;;;;;;6215244;23;20149;-82
2023/03/23 11:10:40;;;;;;;2.03;1.23;;;14.10;1.00;;;;;;6215133;23;20156;-82
2023/03/23 11:13:15;;;;;;;4.22;1.48;;;14.10;1.00;;;;;;6211420;23;20145;-81
2023/03/23 11:15:42;;;;;;;2.00;1.23;;;14.00;1.00;;;;;;6236581;23;20169;-84
2023/03/23 11:18:23;;;;;;;3.65;1.55;;;13.90;1.00;;;;;;6208189;23;20161;-82
2023/03/23 11:20:54;;;;;;;4.05;1.48;;;13.90;1.00;;;;;;6210446;23;20248;-83
2023/03/23 11:23:26;;;;;;;2.70;1.40;;;13.80;1.00;;;;;;6237872;23;20549;-82
2023/03/23 11:26:09;;;;;;;3.00;1.33;;;13.80;1.00;;;;;;6237484;23;20849;-83
2023/03/23 11:28:41;;;;;;;7.13;1.33;;;14.00;1.00;;;;;;6237909;23;20168;-82
2023/03/23 11:31:07;;;;;;;1.48;1.10;;;14.10;1.00;;;;;;6236807;23;20683;-84
2023/03/23 11:33:57;;;;;;;5.50;1.50;;;14.20;1.00;;;;;;6208489;23;20336;-82
2023/03/23 11:36:36;;;;;;;2.70;1.30;;;14.30;1.00;;;;;;6209583;23;20574;-82
2023/03/23 11:39:04;;;;;;;1.63;1.17;;;14.50;1.00;;;;;;6209539;23;20146;-87
2023/03/23 11:41:37;;;;;;;3.50;1.52;;;14.60;1.00;;;;;;6236438;23;20196;-79
2023/03/23 11:44:10;;;;;;;2.00;1.20;;;14.60;1.00;;;;;;6210084;23;20371;-85
2023/03/23 11:47:04;;;;;;;2.40;1.50;;;14.60;1.00;;;;;;6209768;23;20240;-82
2023/03/23 11:50:12;;;;;;;2.45;1.27;;;14.40;1.00;;;;;;6225395;23;20632;-82
2023/03/23 11:52:54;;;;;;;1.77;1.10;;;14.30;1.00;;;;;;6236890;23;20172;-84
2023/03/23 11:55:25;;;;;;;2.67;1.30;;;14.50;1.00;;;;;;6209413;23;20197;-83
2023/03/23 11:57:51;;;;;;;3.85;1.40;;;14.60;1.00;;;;;;6209335;23;20177;-81
2023/03/23 12:00:19;;;;;;;2.47;1.20;;;14.50;1.00;;;;;;6209758;23;20164;-83
2023/03/23 12:03:25;;;;;;;4.07;1.50;;;14.50;1.00;;;;;;6239518;23;20161;-81
2023/03/23 12:06:02;;;;;;;2.50;1.50;;;14.60;1.00;;;;;;6240622;23;20173;-82
2023/03/23 12:08:47;;;;;;;3.67;1.30;;;14.60;1.00;;;;;;6239690;23;20162;-83
2023/03/23 12:11:43;;;;;;;3.10;1.40;;;14.80;1.00;;;;;;6211955;23;20177;-82
2023/03/23 12:14:12;;;;;;;3.30;1.35;;;14.90;1.00;;;;;;6177192;23;20260;-82
2023/03/23 12:16:55;;;;;;;2.33;1.30;;;15.10;1.00;;;;;;6240160;23;20590;-82
2023/03/23 12:19:29;;;;;;;4.50;1.20;;;15.30;1.00;;;;;;6215640;23;20145;-85
2023/03/23 12:22:20;;;;;;;2.63;1.25;;;15.50;1.00;;;;;;6212123;23;20154;-84
2023/03/23 12:25:05;;;;;;;2.28;1.15;;;15.40;1.00;;;;;;6211054;23;20186;-83
2023/03/23 12:27:31;;;;;;;2.25;1.25;;;15.40;1.00;;;;;;6211072;23;20250;-80
2023/03/23 12:30:01;;;;;;;4.20;1.35;;;15.30;1.00;;;;;;6210159;23;20185;-86
2023/03/23 12:32:42;;;;;;;2.53;1.30;;;15.90;1.00;;;;;;6208201;23;20264;-83
2023/03/23 12:35:17;;;;;;;2.38;1.25;;;15.40;1.00;;;;;;6235833;23;20176;-84
2023/03/23 12:37:42;;;;;;;3.28;1.85;;;15.30;1.00;;;;;;6216677;23;20161;-82
2023/03/23 12:40:23;;;;;;;2.53;1.23;;;15.40;1.00;;;;;;6215972;23;20673;-86
2023/03/23 12:43:04;;;;;;;2.22;1.30;;;15.80;1.00;;;;;;6215441;23;20161;-80
2023/03/23 12:45:47;;;;;;;2.78;1.70;;;15.90;1.00;;;;;;6218167;23;20182;-78
2023/03/23 12:48:39;;;;;;;3.10;1.80;;;16.00;1.00;;;;;;6245377;23;20146;-83
2023/03/23 12:51:29;;;;;;;3.00;1.38;;;16.00;1.00;;;;;;6219701;23;20190;-80
2023/03/23 12:54:07;;;;;;;2.38;1.10;;;15.80;1.00;;;;;;6217547;23;20174;-81
2023/03/23 12:56:44;;;;;;;3.78;1.48;;;15.70;1.00;;;;;;6215334;23;20594;-81
2023/03/23 12:59:28;;;;;;;3.72;1.60;;;15.90;1.00;;;;;;6250740;23;20593;-85
2023/03/23 13:02:03;;;;;;;4.32;1.77;;;15.70;1.00;;;;;;6248208;23;20225;-80
2023/03/23 13:05:06;;;;;;;4.15;1.25;;;15.40;1.00;;;;;;6188654;23;20280;-84
2023/03/23 13:07:58;;;;;;;;;;;;;;;;;;;;;
2023/03/23 13:10:51;;;;;;;4.03;1.42;;;15.30;1.00;;;;;;6174352;23;20245;-83
2023/03/23 13:13:25;;;;;;;3.30;1.25;;;15.40;1.00;;;;;;6131638;23;20225;-80
2023/03/23 13:16:29;;;;;;;3.45;1.30;;;15.70;1.00;;;;;;6115603;23;20177;-82